Главная страница
METAR-TAF:

METAR-TAF

Аэропорты :

Кейк

Kake, Аляска, США

широта: 56-57N, долгота: 133-54W, высота над уровнем моря: 52 м

Текущие метеонаблюдения

Эта сводка был подготовлена 1 час и 56 минут назад, в 11:56 UTC
Ветер 6 Узел от восточный
Температура 8°C
Влажность 93%
Давление 1019 hPa
Видимость: 16.1 км
Сплошная облачность на высоте 4900 фута

METAR: PAFE 201156Z AUTO 10006KT 10SM OVC049 08/07 A3009 RMK AO2 RAE53 SLP202 P0000 60007 70127 T00780067 10089 20078 51029

Время: 05:52 (13:52 UTC)


TAF: отсутствует

Метеонаблюдения и прогнозы для более 4000 аэропортов (сводки METAR и TAF).

Имеющиеся станции представлены на карте желтыми и красными точками.

Чтобы увидеть название станции, наведите на нее мышь.

Затем щелкните, чтобы увидеть метеонаблюдения и метеопрогнозы.

Управление картой: чтобы увеличить масштаб, щелкните зеленые кнопки с черным крестиком; чтобы уменьшить масштаб, щелкните зеленую кнопку с тире; для просмотра соседних карт щелкайте зеленые стрелки.


METAR-TAF: